Time;durP1;ratioP1;P1;durP2;ratioP2;P2;SDS_P1;SDS_P2;PMS_P1;PMS_P2;Temp;Humidity;BMP_temperature;BMP_pressure;BME280_temperature;BME280_humidity;BME280_pressure;Samples;Min_cycle;Max_cycle;Signal;HPM_P1;HPM_P2
2021/08/18 00:01:33;;;;;;;5.05;3.28;;;16.00;90.60;;;;;;5033051;28;20105;-79
2021/08/18 00:03:58;;;;;;;3.45;3.15;;;16.00;90.60;;;;;;5034113;28;20501;-78
2021/08/18 00:06:24;;;;;;;3.65;3.35;;;16.00;90.90;;;;;;5033190;28;20025;-79
2021/08/18 00:08:49;;;;;;;3.97;3.00;;;16.00;90.60;;;;;;5033098;28;20169;-79
2021/08/18 00:11:15;;;;;;;4.20;3.20;;;16.00;90.60;;;;;;5034368;28;20034;-78
2021/08/18 00:13:41;;;;;;;3.00;2.80;;;16.00;90.60;;;;;;5034256;28;20032;-79
2021/08/18 00:16:07;;;;;;;3.55;3.25;;;16.00;90.60;;;;;;5032708;28;20124;-78
2021/08/18 00:18:33;;;;;;;3.25;2.95;;;16.00;90.60;;;;;;5034192;28;20033;-78
2021/08/18 00:20:58;;;;;;;3.63;3.33;;;16.00;90.60;;;;;;5032585;28;20052;-78
2021/08/18 00:27:14;;;;;;;3.30;2.72;;;16.00;90.60;;;;;;5034414;28;20487;-78
2021/08/18 00:29:40;;;;;;;3.50;2.90;;;16.00;90.70;;;;;;5033926;28;20026;-78
2021/08/18 00:32:07;;;;;;;3.70;3.20;;;16.00;90.60;;;;;;5032467;28;20025;-78
2021/08/18 00:34:33;;;;;;;4.13;3.30;;;16.00;90.60;;;;;;5032679;28;20017;-78
2021/08/18 00:36:58;;;;;;;3.95;3.45;;;16.00;90.80;;;;;;5033912;28;20482;-78
2021/08/18 00:39:24;;;;;;;3.63;3.25;;;16.00;90.60;;;;;;5033753;28;20534;-78
2021/08/18 00:41:50;;;;;;;5.78;3.28;;;16.00;90.60;;;;;;5032275;28;20102;-78
2021/08/18 00:44:16;;;;;;;5.22;3.38;;;16.00;90.60;;;;;;5032309;28;20504;-77
2021/08/18 00:46:55;;;;;;;3.58;3.28;;;16.00;90.60;;;;;;5033763;28;20022;-77
2021/08/18 00:49:22;;;;;;;3.47;3.00;;;16.00;90.60;;;;;;5033675;28;20096;-78
2021/08/18 00:51:49;;;;;;;5.43;3.28;;;16.10;90.60;;;;;;5032211;28;20052;-78
2021/08/18 00:54:16;;;;;;;3.67;3.38;;;16.00;90.60;;;;;;5032523;28;20120;-78
2021/08/18 01:00:07;;;;;;;3.90;3.60;;;16.00;90.60;;;;;;5033788;28;20032;-77
2021/08/18 01:02:36;;;;;;;3.80;3.33;;;16.00;90.60;;;;;;5031831;28;20083;-77
2021/08/18 01:05:10;;;;;;;4.38;3.22;;;16.00;90.60;;;;;;5032099;28;20026;-77
2021/08/18 01:07:36;;;;;;;3.88;3.47;;;16.00;90.60;;;;;;5031925;28;20031;-78
2021/08/18 01:10:13;;;;;;;3.53;3.22;;;16.00;90.60;;;;;;5031884;28;20119;-77
2021/08/18 01:12:39;;;;;;;3.28;3.00;;;16.00;90.60;;;;;;5031866;28;20421;-78
2021/08/18 01:15:06;;;;;;;3.83;3.10;;;16.00;90.60;;;;;;5031949;28;20021;-77
2021/08/18 01:17:49;;;;;;;4.18;3.08;;;16.00;90.90;;;;;;5031844;28;20033;-77
2021/08/18 01:20:18;;;;;;;3.88;3.00;;;16.00;90.60;;;;;;5031730;28;20045;-77
2021/08/18 01:22:44;;;;;;;3.45;3.05;;;16.00;90.70;;;;;;5031640;28;20067;-77
2021/08/18 01:25:11;;;;;;;5.38;2.90;;;16.00;90.70;;;;;;5031899;28;20064;-77
2021/08/18 01:27:43;;;;;;;3.20;2.88;;;16.00;90.70;;;;;;5031921;28;20468;-77
2021/08/18 01:30:10;;;;;;;3.47;3.17;;;16.00;90.70;;;;;;5031607;28;20393;-77
2021/08/18 01:32:49;;;;;;;3.15;2.85;;;15.90;90.60;;;;;;5031855;28;20388;-77
2021/08/18 01:35:17;;;;;;;2.90;2.70;;;16.00;90.70;;;;;;5031590;28;20544;-77
2021/08/18 01:37:42;;;;;;;3.00;2.70;;;15.90;90.60;;;;;;5031611;28;20026;-77
2021/08/18 01:40:09;;;;;;;3.67;2.75;;;16.00;90.70;;;;;;5032736;28;20033;-77
2021/08/18 01:42:37;;;;;;;4.50;2.97;;;16.00;90.70;;;;;;5032639;28;20083;-77
2021/08/18 01:45:04;;;;;;;2.83;2.50;;;15.90;90.70;;;;;;5030868;28;20398;-77
2021/08/18 01:47:30;;;;;;;3.30;2.88;;;16.00;90.70;;;;;;5031435;28;20443;-77
2021/08/18 01:49:55;;;;;;;3.15;2.70;;;16.00;90.70;;;;;;5031477;28;20052;-77
2021/08/18 01:52:21;;;;;;;4.13;3.20;;;16.00;90.70;;;;;;5032589;28;20026;-77
2021/08/18 01:54:46;;;;;;;6.18;2.78;;;16.00;90.70;;;;;;5031466;28;20024;-78
2021/08/18 01:57:12;;;;;;;3.60;2.80;;;16.00;90.70;;;;;;5031350;28;20057;-78
2021/08/18 01:59:38;;;;;;;4.10;3.38;;;16.00;90.70;;;;;;5031362;28;20053;-78
2021/08/18 02:02:03;;;;;;;4.38;3.45;;;16.00;90.70;;;;;;5031215;28;20112;-78
2021/08/18 02:04:29;;;;;;;3.70;2.90;;;16.00;90.90;;;;;;5031386;28;20520;-78
2021/08/18 02:06:55;;;;;;;3.75;2.95;;;16.00;90.60;;;;;;5031544;28;20121;-78
2021/08/18 02:09:20;;;;;;;5.10;2.97;;;16.00;90.70;;;;;;5032550;28;20091;-78
2021/08/18 02:11:46;;;;;;;3.78;3.10;;;16.00;90.70;;;;;;5032547;28;20021;-78
2021/08/18 02:14:12;;;;;;;5.03;3.25;;;16.00;90.70;;;;;;5032409;28;20034;-77
2021/08/18 02:16:37;;;;;;;4.63;3.20;;;16.00;90.70;;;;;;5031281;28;20022;-77
2021/08/18 02:19:05;;;;;;;3.90;3.35;;;15.90;90.70;;;;;;5031259;28;20407;-78
2021/08/18 02:21:30;;;;;;;3.55;3.22;;;16.00;90.70;;;;;;5030925;28;20098;-78
2021/08/18 02:23:56;;;;;;;3.95;3.22;;;16.00;90.70;;;;;;5032693;28;20100;-77
2021/08/18 02:26:22;;;;;;;4.47;2.85;;;15.90;90.70;;;;;;5031134;28;20021;-78
2021/08/18 02:28:47;;;;;;;3.20;2.90;;;16.00;90.70;;;;;;5031119;28;20527;-77
2021/08/18 02:31:13;;;;;;;3.47;3.05;;;16.00;90.70;;;;;;5030996;28;20057;-77
2021/08/18 02:33:39;;;;;;;3.05;2.75;;;16.00;90.70;;;;;;5032287;28;20018;-77
2021/08/18 02:36:05;;;;;;;3.67;2.60;;;16.00;90.70;;;;;;5031017;28;20505;-77
2021/08/18 02:38:30;;;;;;;4.07;2.78;;;15.90;90.70;;;;;;5032156;28;20045;-77
2021/08/18 02:40:56;;;;;;;3.05;2.65;;;15.90;90.70;;;;;;5030937;28;20021;-77
2021/08/18 02:43:22;;;;;;;3.78;2.58;;;15.90;90.70;;;;;;5032462;28;20043;-77
2021/08/18 02:45:48;;;;;;;3.00;2.70;;;15.90;90.70;;;;;;5030917;28;20466;-77
2021/08/18 02:48:13;;;;;;;2.95;2.75;;;15.90;90.70;;;;;;5030934;28;20022;-77
2021/08/18 02:50:39;;;;;;;3.20;2.90;;;15.90;90.70;;;;;;5030998;28;20059;-77
2021/08/18 02:53:05;;;;;;;3.35;2.75;;;15.90;90.60;;;;;;5031300;28;20119;-77
2021/08/18 02:55:30;;;;;;;2.70;2.50;;;15.90;90.70;;;;;;5030931;28;20013;-77
2021/08/18 02:57:57;;;;;;;2.78;2.50;;;15.90;90.60;;;;;;5035280;28;20052;-77
2021/08/18 03:00:23;;;;;;;2.92;2.50;;;15.90;90.90;;;;;;5034192;28;20021;-77
2021/08/18 03:06:10;;;;;;;2.95;2.40;;;15.90;90.70;;;;;;5035916;28;20063;-77
2021/08/18 03:08:36;;;;;;;2.53;2.33;;;15.90;90.60;;;;;;5034278;28;20025;-77
2021/08/18 03:11:01;;;;;;;2.47;2.28;;;15.90;90.60;;;;;;5034196;28;20025;-77
2021/08/18 03:13:29;;;;;;;2.70;2.50;;;15.90;90.60;;;;;;5034083;28;20028;-76
2021/08/18 03:15:55;;;;;;;3.35;2.50;;;15.90;90.60;;;;;;5034224;28;20041;-77
2021/08/18 03:18:20;;;;;;;2.60;2.40;;;15.90;90.60;;;;;;5034067;28;20032;-77
2021/08/18 03:20:46;;;;;;;3.03;2.45;;;15.90;90.60;;;;;;5033640;28;20511;-77
2021/08/18 03:23:12;;;;;;;3.67;2.72;;;15.90;90.60;;;;;;5035282;28;20022;-77
2021/08/18 03:25:37;;;;;;;2.80;2.28;;;15.90;90.60;;;;;;5033925;28;20105;-77
2021/08/18 03:28:03;;;;;;;2.83;2.28;;;15.90;90.60;;;;;;5033777;28;20030;-77
2021/08/18 03:30:29;;;;;;;3.67;2.85;;;15.80;90.60;;;;;;5033745;28;20021;-77
2021/08/18 03:36:35;;;;;;;3.95;2.22;;;15.90;90.60;;;;;;5035338;28;20028;-77
2021/08/18 03:39:01;;;;;;;3.65;2.28;;;15.90;90.60;;;;;;5035043;28;20055;-77
2021/08/18 03:45:04;;;;;;;2.30;2.10;;;15.90;90.60;;;;;;5034964;28;20072;-77
2021/08/18 03:47:30;;;;;;;6.93;2.95;;;15.90;90.60;;;;;;5033463;28;20071;-77
2021/08/18 03:53:18;;;;;;;2.25;2.05;;;15.80;90.60;;;;;;5034878;28;20512;-77
2021/08/18 03:55:43;;;;;;;3.47;2.10;;;15.80;90.50;;;;;;5033310;28;20025;-76
2021/08/18 03:58:09;;;;;;;2.95;1.98;;;15.80;90.60;;;;;;5033402;28;20048;-77
2021/08/18 04:00:35;;;;;;;1.80;1.65;;;15.70;90.60;;;;;;5033069;28;20116;-77
2021/08/18 04:03:01;;;;;;;2.65;1.90;;;15.70;90.50;;;;;;5034477;28;20025;-76
2021/08/18 04:05:27;;;;;;;3.78;1.80;;;15.70;90.50;;;;;;5033050;28;20017;-75
2021/08/18 04:07:53;;;;;;;2.50;1.90;;;15.70;90.50;;;;;;5032585;28;20029;-76
2021/08/18 04:10:19;;;;;;;1.95;1.85;;;15.70;90.50;;;;;;5034340;28;20080;-76
2021/08/18 04:12:58;;;;;;;2.67;1.90;;;15.70;90.50;;;;;;5033052;28;20026;-76
2021/08/18 04:15:27;;;;;;;1.92;1.83;;;15.70;90.50;;;;;;5032927;28;20030;-76
2021/08/18 04:17:53;;;;;;;4.15;2.15;;;15.80;90.60;;;;;;5033204;28;20056;-77
2021/08/18 04:20:20;;;;;;;2.35;1.95;;;15.80;90.60;;;;;;5032749;28;20470;-76
2021/08/18 04:22:46;;;;;;;3.22;2.33;;;15.80;90.50;;;;;;5032645;28;20032;-76
2021/08/18 04:25:14;;;;;;;3.10;1.77;;;15.80;90.50;;;;;;5032641;28;20366;-76
2021/08/18 04:27:40;;;;;;;3.38;2.20;;;15.80;90.60;;;;;;5032643;28;20093;-76
2021/08/18 04:33:27;;;;;;;2.25;2.03;;;15.80;90.50;;;;;;5034238;28;20068;-76
2021/08/18 04:35:53;;;;;;;3.78;2.30;;;15.80;90.50;;;;;;5032466;28;20018;-76
2021/08/18 04:38:19;;;;;;;3.72;2.25;;;15.70;90.50;;;;;;5032559;28;20465;-76
2021/08/18 04:40:44;;;;;;;3.10;2.20;;;15.70;90.50;;;;;;5032272;28;20056;-76
2021/08/18 04:43:14;;;;;;;2.42;2.22;;;15.70;90.80;;;;;;5032464;28;20021;-76
2021/08/18 04:45:40;;;;;;;2.78;2.30;;;15.70;90.60;;;;;;5033754;28;20075;-76
2021/08/18 04:48:06;;;;;;;2.42;2.22;;;15.70;90.60;;;;;;5032723;28;20083;-76
2021/08/18 04:50:32;;;;;;;2.90;2.55;;;15.70;90.60;;;;;;5033564;28;20021;-76
2021/08/18 04:52:58;;;;;;;3.08;2.63;;;15.70;90.60;;;;;;5032300;28;20078;-76
2021/08/18 04:55:23;;;;;;;4.43;2.50;;;15.70;90.70;;;;;;5033489;28;20092;-77
2021/08/18 04:57:52;;;;;;;3.60;2.60;;;15.70;90.70;;;;;;5032166;28;20048;-76
2021/08/18 05:00:18;;;;;;;3.58;2.45;;;15.60;90.70;;;;;;5033307;28;20469;-76
2021/08/18 05:02:45;;;;;;;2.50;2.30;;;15.70;90.70;;;;;;5031871;28;20036;-76
2021/08/18 05:05:11;;;;;;;3.25;2.45;;;15.70;90.80;;;;;;5032334;28;20036;-77
2021/08/18 05:07:37;;;;;;;2.55;2.30;;;15.70;90.80;;;;;;5031945;28;20032;-76
2021/08/18 05:10:04;;;;;;;2.70;2.50;;;15.70;90.70;;;;;;5033339;28;20108;-77
2021/08/18 05:12:30;;;;;;;2.67;2.45;;;15.80;90.70;;;;;;5033156;28;20034;-77
2021/08/18 05:14:57;;;;;;;4.88;2.40;;;15.80;90.70;;;;;;5031991;28;20481;-77
2021/08/18 05:17:23;;;;;;;2.70;2.40;;;15.80;90.60;;;;;;5031807;28;20473;-76
2021/08/18 05:19:48;;;;;;;3.90;2.30;;;15.90;90.60;;;;;;5030854;28;20132;-77
2021/08/18 05:22:14;;;;;;;2.42;2.08;;;15.90;90.60;;;;;;5031735;28;20064;-76
2021/08/18 05:24:42;;;;;;;3.38;2.47;;;16.00;90.60;;;;;;5031597;28;20021;-77
2021/08/18 05:27:08;;;;;;;3.35;2.20;;;16.00;90.60;;;;;;5032946;28;20030;-76
2021/08/18 05:29:33;;;;;;;6.15;2.67;;;16.10;90.60;;;;;;5032293;28;20079;-77
2021/08/18 05:31:59;;;;;;;3.30;2.50;;;16.10;90.50;;;;;;5031432;28;20508;-76
2021/08/18 05:34:25;;;;;;;2.55;2.33;;;16.10;90.50;;;;;;5031602;28;20103;-77
2021/08/18 05:36:50;;;;;;;3.85;2.20;;;16.10;90.50;;;;;;5031859;28;20044;-76
2021/08/18 05:39:16;;;;;;;4.07;2.05;;;16.10;90.50;;;;;;5031559;28;20457;-76
2021/08/18 05:41:41;;;;;;;4.72;2.30;;;16.10;90.50;;;;;;5031391;28;20030;-76
2021/08/18 05:44:07;;;;;;;2.20;1.98;;;16.10;90.50;;;;;;5031597;28;20041;-76
2021/08/18 05:46:33;;;;;;;2.17;1.98;;;16.10;90.50;;;;;;5031472;28;20021;-76
2021/08/18 05:48:58;;;;;;;2.95;2.22;;;16.20;90.50;;;;;;5031476;28;20105;-76
2021/08/18 05:51:24;;;;;;;2.85;2.10;;;16.20;90.40;;;;;;5031318;28;20465;-77
2021/08/18 05:53:50;;;;;;;2.97;2.17;;;16.20;90.40;;;;;;5032643;28;20100;-77
2021/08/18 05:56:17;;;;;;;2.30;2.10;;;16.20;90.40;;;;;;5031380;28;20025;-77
2021/08/18 05:58:43;;;;;;;3.83;2.08;;;16.20;90.40;;;;;;5031194;28;20052;-77
2021/08/18 06:01:09;;;;;;;2.85;2.00;;;16.30;90.40;;;;;;5031156;28;20029;-77
2021/08/18 06:03:35;;;;;;;2.88;2.30;;;16.30;90.40;;;;;;5031205;28;20393;-77
2021/08/18 06:06:01;;;;;;;2.20;2.08;;;16.30;90.30;;;;;;5031184;28;20419;-77
2021/08/18 06:08:27;;;;;;;2.40;2.13;;;16.40;90.30;;;;;;5031177;28;20010;-77
2021/08/18 06:10:52;;;;;;;2.90;2.30;;;16.40;90.30;;;;;;5031206;28;20064;-77
2021/08/18 06:13:18;;;;;;;4.43;2.10;;;16.40;90.30;;;;;;5031125;28;20544;-77
2021/08/18 06:19:06;;;;;;;2.20;2.00;;;16.50;90.20;;;;;;5032811;28;20087;-76
2021/08/18 06:21:31;;;;;;;2.10;1.77;;;16.50;90.20;;;;;;5031140;28;20033;-76
2021/08/18 06:24:05;;;;;;;2.17;1.98;;;16.60;90.20;;;;;;5032373;28;20469;-76
2021/08/18 06:26:31;;;;;;;2.70;2.08;;;16.60;90.10;;;;;;5032466;28;20022;-77
2021/08/18 06:28:56;;;;;;;2.50;1.95;;;16.60;90.10;;;;;;5030875;28;20028;-76
2021/08/18 06:31:22;;;;;;;1.98;1.75;;;16.70;90.10;;;;;;5033495;28;20022;-76
2021/08/18 06:33:49;;;;;;;2.13;1.92;;;16.70;90.00;;;;;;5036243;28;20045;-76
2021/08/18 06:36:17;;;;;;;2.50;2.05;;;16.70;90.00;;;;;;5034705;28;20179;-76
2021/08/18 06:38:43;;;;;;;2.10;1.80;;;16.80;90.00;;;;;;5034887;28;20086;-76
2021/08/18 06:41:08;;;;;;;2.05;1.85;;;16.80;90.00;;;;;;5034544;28;20116;-77
2021/08/18 06:43:34;;;;;;;2.28;1.85;;;16.80;90.00;;;;;;5034622;28;20389;-76
2021/08/18 06:45:59;;;;;;;1.80;1.70;;;16.90;89.90;;;;;;5034855;28;20017;-76
2021/08/18 06:48:25;;;;;;;4.53;1.65;;;16.90;89.80;;;;;;5034485;28;20025;-76
2021/08/18 06:50:50;;;;;;;2.28;1.67;;;16.90;89.80;;;;;;5034472;28;20017;-73
2021/08/18 06:53:16;;;;;;;1.90;1.60;;;16.90;89.70;;;;;;5035597;28;20021;-73
2021/08/18 06:55:42;;;;;;;2.38;1.77;;;16.90;89.60;;;;;;5035765;28;20591;-74
2021/08/18 06:58:07;;;;;;;2.15;1.50;;;16.90;89.60;;;;;;5035593;28;20480;-73
2021/08/18 07:00:33;;;;;;;1.83;1.70;;;16.90;89.50;;;;;;5034761;28;20025;-73
2021/08/18 07:02:59;;;;;;;2.45;1.58;;;17.00;89.40;;;;;;5034206;28;20025;-74
2021/08/18 07:05:30;;;;;;;3.38;1.70;;;17.00;89.20;;;;;;5034215;28;20362;-74
2021/08/18 07:07:56;;;;;;;2.70;1.80;;;17.00;89.20;;;;;;5034237;28;20017;-74
2021/08/18 07:10:22;;;;;;;1.75;1.60;;;17.00;89.20;;;;;;5033818;28;20075;-74
2021/08/18 07:12:47;;;;;;;2.15;1.70;;;17.00;89.00;;;;;;5035338;28;20029;-74
2021/08/18 07:15:13;;;;;;;1.75;1.65;;;17.00;89.00;;;;;;5033992;28;20168;-73
2021/08/18 07:17:39;;;;;;;2.50;1.88;;;17.00;88.90;;;;;;5035238;28;20028;-74
2021/08/18 07:20:06;;;;;;;2.40;1.95;;;17.00;88.90;;;;;;5043460;28;20056;-74
2021/08/18 07:22:31;;;;;;;2.20;1.75;;;17.10;88.90;;;;;;5037089;28;20021;-73
2021/08/18 07:24:59;;;;;;;2.97;1.88;;;17.10;88.80;;;;;;5054927;28;20025;-74
2021/08/18 07:27:24;;;;;;;3.55;1.75;;;17.20;88.90;;;;;;5037248;28;20072;-74
2021/08/18 07:29:50;;;;;;;3.03;2.10;;;17.20;88.80;;;;;;5037435;28;20025;-73
2021/08/18 07:32:16;;;;;;;2.25;1.80;;;17.20;88.60;;;;;;5054685;28;20032;-74
2021/08/18 07:34:41;;;;;;;1.67;1.58;;;17.20;88.50;;;;;;5054973;28;20120;-73
2021/08/18 07:37:07;;;;;;;2.58;1.73;;;17.20;88.40;;;;;;5036966;28;20433;-74
2021/08/18 07:39:33;;;;;;;2.53;1.60;;;17.20;88.40;;;;;;5054607;28;20079;-73
2021/08/18 07:41:58;;;;;;;4.95;1.65;;;17.20;88.20;;;;;;5053784;28;20052;-75
2021/08/18 07:44:24;;;;;;;2.58;1.65;;;17.20;88.20;;;;;;5054437;28;20021;-75
2021/08/18 07:46:50;;;;;;;2.15;1.70;;;17.30;88.10;;;;;;5037168;28;20075;-76
2021/08/18 07:49:15;;;;;;;2.42;1.50;;;17.20;87.90;;;;;;5036914;28;20020;-77
2021/08/18 07:51:41;;;;;;;3.40;1.70;;;17.30;87.90;;;;;;5036670;28;20025;-75
2021/08/18 07:54:06;;;;;;;2.78;1.60;;;17.20;87.70;;;;;;5036460;28;20493;-73
2021/08/18 07:56:32;;;;;;;2.30;1.48;;;17.30;87.70;;;;;;5036472;28;20467;-73
2021/08/18 07:59:01;;;;;;;3.85;1.40;;;17.20;87.60;;;;;;5036205;28;20032;-74
2021/08/18 08:01:27;;;;;;;1.73;1.50;;;17.30;87.60;;;;;;5036229;28;20029;-72
2021/08/18 08:03:52;;;;;;;1.95;1.70;;;17.30;87.40;;;;;;5054133;28;20043;-72
2021/08/18 08:06:18;;;;;;;1.40;1.30;;;17.40;87.40;;;;;;5054208;28;20025;-77
2021/08/18 08:08:43;;;;;;;2.83;1.50;;;17.50;87.40;;;;;;5036234;28;20021;-73
2021/08/18 08:11:09;;;;;;;1.55;1.42;;;17.50;87.30;;;;;;5036351;28;20032;-75
2021/08/18 08:13:35;;;;;;;1.58;1.48;;;17.50;87.20;;;;;;5036006;28;20040;-77
2021/08/18 08:16:01;;;;;;;1.58;1.48;;;17.50;87.10;;;;;;5036131;28;20405;-77
2021/08/18 08:18:26;;;;;;;2.35;1.50;;;17.60;87.10;;;;;;5036105;28;20035;-71
2021/08/18 08:20:52;;;;;;;2.90;1.50;;;17.60;87.10;;;;;;5068916;28;20135;-72
2021/08/18 08:23:18;;;;;;;1.20;1.10;;;17.70;87.00;;;;;;5036304;28;20032;-76
2021/08/18 08:25:43;;;;;;;1.77;1.45;;;17.70;86.90;;;;;;5036225;28;20021;-76
2021/08/18 08:28:09;;;;;;;1.92;1.27;;;17.80;86.80;;;;;;5035747;28;20013;-72
2021/08/18 08:30:34;;;;;;;2.60;1.80;;;17.90;86.70;;;;;;5053715;28;20032;-76
2021/08/18 08:33:00;;;;;;;2.42;1.48;;;18.00;86.40;;;;;;5035877;28;20025;-73
2021/08/18 08:35:26;;;;;;;1.55;1.40;;;18.00;86.30;;;;;;5035514;28;20029;-72
2021/08/18 08:37:52;;;;;;;1.42;1.30;;;18.00;86.30;;;;;;5053603;28;20021;-74
2021/08/18 08:40:18;;;;;;;2.22;1.52;;;18.20;86.20;;;;;;5035842;28;20029;-73
2021/08/18 08:42:44;;;;;;;1.45;1.35;;;18.20;85.90;;;;;;5053593;28;20036;-76
2021/08/18 08:45:11;;;;;;;1.67;1.58;;;18.30;85.80;;;;;;5035386;28;20013;-75
2021/08/18 08:47:37;;;;;;;3.42;1.48;;;18.40;85.80;;;;;;5053420;28;20475;-73
2021/08/18 08:50:09;;;;;;;2.00;1.55;;;18.50;85.50;;;;;;5053306;28;20020;-74
2021/08/18 08:52:35;;;;;;;1.85;1.75;;;18.60;85.40;;;;;;5053294;28;20061;-74
2021/08/18 08:55:02;;;;;;;2.95;1.67;;;18.60;85.20;;;;;;5053351;28;20049;-78
2021/08/18 08:57:27;;;;;;;1.85;1.60;;;18.70;85.20;;;;;;5035304;28;20028;-72
2021/08/18 08:59:53;;;;;;;1.90;1.70;;;18.70;85.20;;;;;;5053108;28;20025;-80
2021/08/18 09:02:21;;;;;;;2.15;1.70;;;18.70;85.10;;;;;;5035443;28;20025;-79
2021/08/18 09:04:48;;;;;;;3.65;2.17;;;18.70;85.00;;;;;;5035065;28;20025;-79
2021/08/18 09:07:15;;;;;;;1.95;1.80;;;18.70;85.00;;;;;;5053085;28;20473;-79
2021/08/18 09:10:11;;;;;;;2.97;2.17;;;18.80;85.00;;;;;;5035052;28;20018;-78
2021/08/18 09:12:39;;;;;;;2.42;2.10;;;18.80;84.80;;;;;;5040089;28;20108;-79
2021/08/18 09:15:26;;;;;;;2.50;2.05;;;18.90;84.70;;;;;;5035023;28;20127;-79
2021/08/18 09:17:55;;;;;;;2.03;1.90;;;19.00;84.60;;;;;;5034721;28;20025;-78
2021/08/18 09:20:29;;;;;;;2.20;2.00;;;19.00;84.60;;;;;;5034808;28;20068;-79
2021/08/18 09:22:58;;;;;;;3.25;2.38;;;19.00;84.60;;;;;;5018407;28;20580;-78
2021/08/18 09:25:30;;;;;;;2.92;2.25;;;19.10;84.50;;;;;;5052545;28;20488;-78
2021/08/18 09:28:01;;;;;;;3.75;2.30;;;19.10;84.40;;;;;;5034749;28;20472;-78
2021/08/18 09:30:30;;;;;;;2.53;2.10;;;19.20;84.40;;;;;;5034723;28;20091;-78
2021/08/18 09:32:58;;;;;;;2.65;2.13;;;19.20;84.30;;;;;;5034789;28;20056;-79
2021/08/18 09:35:26;;;;;;;2.22;2.00;;;19.20;84.30;;;;;;5052541;28;20021;-79
2021/08/18 09:38:17;;;;;;;2.35;2.03;;;19.30;84.30;;;;;;5067970;28;20033;-79
2021/08/18 09:40:54;;;;;;;2.70;2.10;;;19.40;84.10;;;;;;5034549;28;20040;-80
2021/08/18 09:43:27;;;;;;;3.13;2.13;;;19.60;84.10;;;;;;5031604;28;20040;-79
2021/08/18 09:46:00;;;;;;;2.38;2.00;;;19.60;83.80;;;;;;5034571;28;20033;-79
2021/08/18 09:48:27;;;;;;;2.60;2.40;;;19.60;83.80;;;;;;5034481;28;20048;-79
2021/08/18 09:50:53;;;;;;;3.15;2.42;;;19.70;83.80;;;;;;5067834;28;20020;-79
2021/08/18 09:53:41;;;;;;;2.38;2.17;;;19.70;83.80;;;;;;5034416;28;20047;-78
2021/08/18 09:56:12;;;;;;;3.22;2.75;;;19.80;83.80;;;;;;5028923;28;20047;-79
2021/08/18 10:02:00;;;;;;;3.38;2.75;;;19.90;83.40;;;;;;5052424;28;20044;-78
2021/08/18 10:07:48;;;;;;;3.13;2.83;;;20.00;83.00;;;;;;5056686;28;20079;-78
2021/08/18 10:10:13;;;;;;;4.25;3.70;;;20.00;83.00;;;;;;5056716;28;20032;-79
2021/08/18 10:12:39;;;;;;;4.10;3.80;;;20.00;82.50;;;;;;5037938;28;20113;-79
2021/08/18 10:15:06;;;;;;;4.00;3.70;;;19.90;82.40;;;;;;5056181;28;20535;-78
2021/08/18 10:17:38;;;;;;;4.75;3.97;;;20.00;82.50;;;;;;5038214;28;20028;-79
2021/08/18 10:20:06;;;;;;;4.40;3.85;;;20.00;82.30;;;;;;5055925;28;20041;-80
2021/08/18 10:22:32;;;;;;;4.70;4.30;;;20.10;82.20;;;;;;5055943;28;20048;-79
2021/08/18 10:25:31;;;;;;;4.95;4.55;;;20.00;82.00;;;;;;5038071;28;20037;-79
2021/08/18 10:27:56;;;;;;;5.57;5.07;;;19.90;81.90;;;;;;5037944;28;20036;-79
2021/08/18 10:30:24;;;;;;;6.40;5.80;;;19.90;81.90;;;;;;5038308;28;20029;-79
2021/08/18 10:32:51;;;;;;;6.07;5.57;;;19.80;82.50;;;;;;5055693;28;20036;-80
2021/08/18 10:35:35;;;;;;;5.68;5.18;;;19.70;82.20;;;;;;5037998;28;20120;-79
2021/08/18 10:38:28;;;;;;;6.63;5.80;;;19.60;82.30;;;;;;5038115;28;20351;-80
2021/08/18 10:40:55;;;;;;;5.97;5.47;;;19.60;82.40;;;;;;5037774;28;20499;-79
2021/08/18 10:43:58;;;;;;;5.93;5.43;;;19.50;82.50;;;;;;5037771;28;20021;-80
2021/08/18 10:46:27;;;;;;;5.82;5.22;;;19.50;82.40;;;;;;5055757;28;20073;-79
2021/08/18 10:48:53;;;;;;;5.72;5.22;;;19.50;82.30;;;;;;5071133;28;20029;-80
2021/08/18 10:51:37;;;;;;;5.30;4.80;;;19.60;82.10;;;;;;5037549;28;20037;-80
2021/08/18 10:54:28;;;;;;;6.57;4.20;;;19.60;82.00;;;;;;5055582;28;20492;-80
2021/08/18 10:56:58;;;;;;;4.20;3.85;;;19.60;81.70;;;;;;5037092;28;20037;-79
2021/08/18 10:59:36;;;;;;;6.05;4.13;;;19.50;81.60;;;;;;5037522;28;20443;-79
2021/08/18 11:02:07;;;;;;;4.20;3.80;;;19.50;81.30;;;;;;5037309;28;20033;-79
2021/08/18 11:04:47;;;;;;;4.15;3.75;;;19.50;81.40;;;;;;5037236;28;20033;-79
2021/08/18 11:07:14;;;;;;;4.32;4.00;;;19.40;81.50;;;;;;5037367;28;20056;-77
2021/08/18 11:09:55;;;;;;;4.57;4.18;;;19.30;81.70;;;;;;5052022;28;20087;-79
2021/08/18 11:12:39;;;;;;;4.55;3.53;;;19.10;82.10;;;;;;5047981;28;20512;-81
2021/08/18 11:15:20;;;;;;;4.88;3.67;;;19.00;82.40;;;;;;5053560;28;20052;-81
2021/08/18 11:17:47;;;;;;;3.72;3.42;;;18.80;82.70;;;;;;5054373;28;20033;-81
2021/08/18 11:20:19;;;;;;;3.40;3.10;;;18.70;83.10;;;;;;5057219;28;20050;-82
2021/08/18 11:22:51;;;;;;;3.63;3.33;;;18.70;83.40;;;;;;5075313;28;20181;-82
2021/08/18 11:25:19;;;;;;;3.40;3.15;;;18.70;83.50;;;;;;5057204;28;20024;-81
2021/08/18 11:27:53;;;;;;;3.20;2.90;;;18.80;83.70;;;;;;5057549;28;20074;-81
2021/08/18 11:30:25;;;;;;;;;;;19.00;83.60;;;;;;5057690;28;20429;-81
2021/08/18 11:32:52;;;;;;;3.80;3.40;;;19.20;83.30;;;;;;5058053;28;20331;-81
2021/08/18 11:35:34;;;;;;;3.88;3.10;;;19.30;83.00;;;;;;5058066;28;20399;-82
2021/08/18 11:38:04;;;;;;;3.25;2.80;;;19.60;82.90;;;;;;5057547;28;20483;-81
2021/08/18 11:40:30;;;;;;;2.85;2.65;;;19.80;82.80;;;;;;5075259;28;20033;-82
2021/08/18 11:42:57;;;;;;;3.10;2.83;;;20.00;82.70;;;;;;5057050;28;20445;-82
2021/08/18 11:45:23;;;;;;;3.35;3.05;;;20.10;82.30;;;;;;5057067;28;20033;-82
2021/08/18 11:47:51;;;;;;;2.88;2.67;;;20.20;81.50;;;;;;5075378;28;20035;-82
2021/08/18 11:50:18;;;;;;;2.40;2.20;;;20.20;81.40;;;;;;5056952;28;20433;-82
2021/08/18 11:52:44;;;;;;;2.42;2.22;;;20.20;81.30;;;;;;5074926;28;20440;-81
2021/08/18 11:55:10;;;;;;;2.33;2.13;;;20.20;81.20;;;;;;5057117;28;20480;-81
2021/08/18 11:57:36;;;;;;;2.67;2.47;;;20.20;80.90;;;;;;5056728;28;20120;-82
2021/08/18 12:00:07;;;;;;;2.33;2.20;;;20.20;80.60;;;;;;5074593;28;20056;-82
2021/08/18 12:02:34;;;;;;;3.58;2.72;;;20.10;80.90;;;;;;5074954;28;20033;-82
2021/08/18 12:05:02;;;;;;;2.92;2.72;;;20.00;80.90;;;;;;5056447;28;20029;-82
2021/08/18 12:07:30;;;;;;;3.42;3.13;;;20.00;80.90;;;;;;5056898;28;20024;-82
2021/08/18 12:10:16;;;;;;;4.30;3.90;;;20.00;80.90;;;;;;5056368;28;20484;-82
2021/08/18 12:12:42;;;;;;;5.00;4.50;;;20.00;81.00;;;;;;5056983;28;20084;-82
2021/08/18 12:15:13;;;;;;;4.18;3.83;;;19.80;81.40;;;;;;5057117;28;20040;-83
2021/08/18 12:17:41;;;;;;;4.80;4.18;;;19.80;81.90;;;;;;5056723;28;20028;-82
2021/08/18 12:20:42;;;;;;;4.75;4.35;;;19.70;82.20;;;;;;5056684;28;20507;-82
2021/08/18 12:23:23;;;;;;;5.20;4.70;;;19.60;82.60;;;;;;4992805;28;20553;-82
2021/08/18 12:25:49;;;;;;;6.18;5.22;;;19.70;82.80;;;;;;5064369;28;20068;-82
2021/08/18 12:28:17;;;;;;;5.80;5.30;;;19.70;82.80;;;;;;5056051;28;20478;-82
2021/08/18 12:31:05;;;;;;;5.57;4.80;;;19.80;82.80;;;;;;5056160;28;20372;-82
2021/08/18 12:33:31;;;;;;;6.72;6.13;;;20.00;82.60;;;;;;5056174;28;20021;-82
2021/08/18 12:36:12;;;;;;;6.32;5.47;;;20.00;82.20;;;;;;5056302;28;20375;-81
2021/08/18 12:38:52;;;;;;;6.35;5.85;;;20.10;82.10;;;;;;5055979;28;20047;-82
2021/08/18 12:41:18;;;;;;;6.00;5.28;;;20.30;81.90;;;;;;5056550;28;20085;-82
2021/08/18 12:43:47;;;;;;;6.03;5.10;;;20.30;81.80;;;;;;5074144;28;20067;-82
2021/08/18 12:46:24;;;;;;;5.65;5.13;;;20.30;81.70;;;;;;5056396;28;20082;-82
2021/08/18 12:48:50;;;;;;;5.72;5.22;;;20.40;82.00;;;;;;5055806;28;20099;-81
2021/08/18 12:51:15;;;;;;;5.78;5.18;;;20.40;81.90;;;;;;5055991;28;20033;-82
2021/08/18 12:53:41;;;;;;;5.57;5.13;;;20.40;81.80;;;;;;5055977;28;20029;-82
2021/08/18 12:56:07;;;;;;;5.90;5.22;;;20.30;81.70;;;;;;5056550;28;20028;-82
2021/08/18 12:58:33;;;;;;;6.18;5.50;;;20.20;81.50;;;;;;5056042;28;20028;-83
2021/08/18 13:00:58;;;;;;;5.93;5.38;;;20.10;81.50;;;;;;5056637;28;20032;-82
2021/08/18 13:03:24;;;;;;;5.93;5.25;;;20.00;81.70;;;;;;5056798;28;20507;-82
2021/08/18 13:05:50;;;;;;;5.18;4.70;;;19.90;81.90;;;;;;5057278;28;20025;-82
2021/08/18 13:08:19;;;;;;;5.47;4.68;;;19.80;82.00;;;;;;5056859;28;20024;-82
2021/08/18 13:10:48;;;;;;;6.68;5.00;;;19.70;82.10;;;;;;5056113;28;20123;-83
2021/08/18 13:13:13;;;;;;;5.70;4.80;;;19.70;82.10;;;;;;5056118;28;20400;-82
2021/08/18 13:15:39;;;;;;;5.00;4.55;;;19.70;82.20;;;;;;5055752;28;20048;-82
2021/08/18 13:18:05;;;;;;;5.50;5.00;;;19.80;82.10;;;;;;5055685;28;20464;-82
2021/08/18 13:20:30;;;;;;;5.00;4.35;;;19.90;81.90;;;;;;5048735;28;20481;-82
2021/08/18 13:22:59;;;;;;;4.47;4.07;;;20.00;81.70;;;;;;5048771;28;20042;-79
2021/08/18 13:25:24;;;;;;;4.85;4.35;;;20.20;81.70;;;;;;5065618;28;20052;-79
2021/08/18 13:27:50;;;;;;;4.78;4.30;;;20.30;81.50;;;;;;5065274;28;20034;-79